sensor_id;sensor_type;location;lat;lon;timestamp;temperature;humidity
60353;DHT22;46196;52.970;6.954;2023-07-20T00:01:13;15.90;99.90
60353;DHT22;46196;52.970;6.954;2023-07-20T00:03:39;14.80;99.90
60353;DHT22;46196;52.970;6.954;2023-07-20T00:06:05;14.30;99.90
60353;DHT22;46196;52.970;6.954;2023-07-20T00:08:30;14.20;99.90
60353;DHT22;46196;52.970;6.954;2023-07-20T00:10:56;14.90;99.90
60353;DHT22;46196;52.970;6.954;2023-07-20T00:13:22;14.90;99.90
60353;DHT22;46196;52.970;6.954;2023-07-20T00:15:48;14.90;99.90
60353;DHT22;46196;52.970;6.954;2023-07-20T00:18:13;14.80;99.90
60353;DHT22;46196;52.970;6.954;2023-07-20T00:20:39;15.50;99.90
60353;DHT22;46196;52.970;6.954;2023-07-20T00:23:05;14.90;99.90
60353;DHT22;46196;52.970;6.954;2023-07-20T00:25:32;15.00;99.90
60353;DHT22;46196;52.970;6.954;2023-07-20T00:27:59;14.90;99.90
60353;DHT22;46196;52.970;6.954;2023-07-20T00:30:24;15.20;99.90
60353;DHT22;46196;52.970;6.954;2023-07-20T00:32:50;14.90;99.90
60353;DHT22;46196;52.970;6.954;2023-07-20T00:35:16;15.40;99.90
60353;DHT22;46196;52.970;6.954;2023-07-20T00:37:42;15.70;99.90
60353;DHT22;46196;52.970;6.954;2023-07-20T00:40:07;14.30;99.90
60353;DHT22;46196;52.970;6.954;2023-07-20T00:42:33;15.00;99.90
60353;DHT22;46196;52.970;6.954;2023-07-20T00:44:59;14.90;99.90
60353;DHT22;46196;52.970;6.954;2023-07-20T00:47:26;15.60;99.90
60353;DHT22;46196;52.970;6.954;2023-07-20T00:49:52;14.70;99.90
60353;DHT22;46196;52.970;6.954;2023-07-20T00:52:23;15.00;99.90
60353;DHT22;46196;52.970;6.954;2023-07-20T00:54:50;15.90;99.90
60353;DHT22;46196;52.970;6.954;2023-07-20T00:57:17;14.80;99.90
60353;DHT22;46196;52.970;6.954;2023-07-20T01:02:10;15.00;99.90
60353;DHT22;46196;52.970;6.954;2023-07-20T01:04:36;14.50;99.90
60353;DHT22;46196;52.970;6.954;2023-07-20T01:10:05;14.90;99.90
60353;DHT22;46196;52.970;6.954;2023-07-20T01:12:35;14.80;99.90
60353;DHT22;46196;52.970;6.954;2023-07-20T01:15:01;13.80;99.90
60353;DHT22;46196;52.970;6.954;2023-07-20T01:17:27;14.90;99.90
60353;DHT22;46196;52.970;6.954;2023-07-20T01:19:53;14.70;99.90
60353;DHT22;46196;52.970;6.954;2023-07-20T01:27:32;14.90;99.90
60353;DHT22;46196;52.970;6.954;2023-07-20T01:32:47;14.70;99.90
60353;DHT22;46196;52.970;6.954;2023-07-20T01:35:14;14.80;99.90
60353;DHT22;46196;52.970;6.954;2023-07-20T01:37:43;14.40;99.90
60353;DHT22;46196;52.970;6.954;2023-07-20T01:40:11;14.70;99.90
60353;DHT22;46196;52.970;6.954;2023-07-20T01:42:38;14.00;99.90
60353;DHT22;46196;52.970;6.954;2023-07-20T01:45:08;14.70;99.90
60353;DHT22;46196;52.970;6.954;2023-07-20T01:47:34;14.80;99.90
60353;DHT22;46196;52.970;6.954;2023-07-20T01:49:59;14.20;99.90
60353;DHT22;46196;52.970;6.954;2023-07-20T01:52:25;14.70;99.90
60353;DHT22;46196;52.970;6.954;2023-07-20T01:54:51;14.50;99.90
60353;DHT22;46196;52.970;6.954;2023-07-20T01:57:16;13.30;99.90
60353;DHT22;46196;52.970;6.954;2023-07-20T01:59:42;15.10;99.90
60353;DHT22;46196;52.970;6.954;2023-07-20T02:02:08;14.00;99.90
60353;DHT22;46196;52.970;6.954;2023-07-20T02:04:33;14.30;99.90
60353;DHT22;46196;52.970;6.954;2023-07-20T02:06:59;15.70;99.90
60353;DHT22;46196;52.970;6.954;2023-07-20T02:09:25;14.00;99.90
60353;DHT22;46196;52.970;6.954;2023-07-20T02:11:51;14.10;99.90
60353;DHT22;46196;52.970;6.954;2023-07-20T02:14:17;14.20;99.90
60353;DHT22;46196;52.970;6.954;2023-07-20T02:16:42;13.80;99.90
60353;DHT22;46196;52.970;6.954;2023-07-20T02:19:08;13.70;99.90
60353;DHT22;46196;52.970;6.954;2023-07-20T02:21:34;14.20;99.90
60353;DHT22;46196;52.970;6.954;2023-07-20T02:23:59;13.90;99.90
60353;DHT22;46196;52.970;6.954;2023-07-20T02:26:25;13.80;99.90
60353;DHT22;46196;52.970;6.954;2023-07-20T02:28:51;13.80;99.90
60353;DHT22;46196;52.970;6.954;2023-07-20T02:31:17;13.70;99.90
60353;DHT22;46196;52.970;6.954;2023-07-20T02:33:42;13.00;99.90
60353;DHT22;46196;52.970;6.954;2023-07-20T02:36:08;13.20;99.90
60353;DHT22;46196;52.970;6.954;2023-07-20T02:38:34;14.90;99.90
60353;DHT22;46196;52.970;6.954;2023-07-20T02:40:59;12.80;99.90
60353;DHT22;46196;52.970;6.954;2023-07-20T02:43:25;12.90;99.90
60353;DHT22;46196;52.970;6.954;2023-07-20T02:45:50;13.30;99.90
60353;DHT22;46196;52.970;6.954;2023-07-20T02:48:16;13.60;99.90
60353;DHT22;46196;52.970;6.954;2023-07-20T02:50:43;13.10;99.90
60353;DHT22;46196;52.970;6.954;2023-07-20T02:53:09;12.30;99.90
60353;DHT22;46196;52.970;6.954;2023-07-20T02:55:35;12.80;99.90
60353;DHT22;46196;52.970;6.954;2023-07-20T02:58:00;13.00;99.90
60353;DHT22;46196;52.970;6.954;2023-07-20T03:00:26;13.00;99.90
60353;DHT22;46196;52.970;6.954;2023-07-20T03:02:52;13.40;99.90
60353;DHT22;46196;52.970;6.954;2023-07-20T03:05:21;15.10;99.90
60353;DHT22;46196;52.970;6.954;2023-07-20T03:07:51;12.90;99.90
60353;DHT22;46196;52.970;6.954;2023-07-20T03:10:17;12.60;99.90
60353;DHT22;46196;52.970;6.954;2023-07-20T03:12:42;12.80;99.90
60353;DHT22;46196;52.970;6.954;2023-07-20T03:15:08;13.40;99.90
60353;DHT22;46196;52.970;6.954;2023-07-20T03:17:34;12.90;99.90
60353;DHT22;46196;52.970;6.954;2023-07-20T03:20:00;13.70;99.90
60353;DHT22;46196;52.970;6.954;2023-07-20T03:22:26;12.80;99.90
60353;DHT22;46196;52.970;6.954;2023-07-20T03:24:52;12.80;99.90
60353;DHT22;46196;52.970;6.954;2023-07-20T03:27:18;12.00;99.90
60353;DHT22;46196;52.970;6.954;2023-07-20T03:29:44;12.40;99.90
60353;DHT22;46196;52.970;6.954;2023-07-20T03:32:10;12.50;99.90
60353;DHT22;46196;52.970;6.954;2023-07-20T03:34:36;12.50;99.90
60353;DHT22;46196;52.970;6.954;2023-07-20T03:37:02;11.80;99.90
60353;DHT22;46196;52.970;6.954;2023-07-20T03:39:30;12.10;99.90
60353;DHT22;46196;52.970;6.954;2023-07-20T03:41:57;13.10;99.90
60353;DHT22;46196;52.970;6.954;2023-07-20T03:44:23;12.70;99.90
60353;DHT22;46196;52.970;6.954;2023-07-20T03:46:48;11.60;99.90
60353;DHT22;46196;52.970;6.954;2023-07-20T03:51:40;12.40;99.90
60353;DHT22;46196;52.970;6.954;2023-07-20T03:54:06;12.70;99.90
60353;DHT22;46196;52.970;6.954;2023-07-20T03:56:31;12.20;99.90
60353;DHT22;46196;52.970;6.954;2023-07-20T04:01:26;12.70;99.90
60353;DHT22;46196;52.970;6.954;2023-07-20T04:03:52;12.10;99.90
60353;DHT22;46196;52.970;6.954;2023-07-20T04:06:17;12.90;99.90
60353;DHT22;46196;52.970;6.954;2023-07-20T04:08:44;12.50;99.90
60353;DHT22;46196;52.970;6.954;2023-07-20T04:11:12;11.10;99.90
60353;DHT22;46196;52.970;6.954;2023-07-20T04:13:38;11.20;99.90
60353;DHT22;46196;52.970;6.954;2023-07-20T04:16:04;11.80;99.90
60353;DHT22;46196;52.970;6.954;2023-07-20T04:18:30;11.90;99.90
60353;DHT22;46196;52.970;6.954;2023-07-20T04:20:55;12.40;99.90
60353;DHT22;46196;52.970;6.954;2023-07-20T04:23:21;12.00;99.90
60353;DHT22;46196;52.970;6.954;2023-07-20T04:25:47;11.90;99.90
60353;DHT22;46196;52.970;6.954;2023-07-20T04:28:12;11.80;99.90
60353;DHT22;46196;52.970;6.954;2023-07-20T04:30:39;12.00;99.90
60353;DHT22;46196;52.970;6.954;2023-07-20T04:33:07;12.80;99.90
60353;DHT22;46196;52.970;6.954;2023-07-20T04:35:49;12.00;99.90
60353;DHT22;46196;52.970;6.954;2023-07-20T04:38:15;11.90;99.90
60353;DHT22;46196;52.970;6.954;2023-07-20T04:40:46;11.80;99.90
60353;DHT22;46196;52.970;6.954;2023-07-20T04:43:12;12.00;99.90
60353;DHT22;46196;52.970;6.954;2023-07-20T04:45:38;12.20;99.90
60353;DHT22;46196;52.970;6.954;2023-07-20T04:48:09;13.80;99.90
60353;DHT22;46196;52.970;6.954;2023-07-20T04:50:36;12.00;99.90
60353;DHT22;46196;52.970;6.954;2023-07-20T04:53:02;12.10;99.90
60353;DHT22;46196;52.970;6.954;2023-07-20T04:55:28;12.00;99.90
60353;DHT22;46196;52.970;6.954;2023-07-20T04:57:54;13.40;99.90
60353;DHT22;46196;52.970;6.954;2023-07-20T05:00:19;13.10;99.90
60353;DHT22;46196;52.970;6.954;2023-07-20T05:05:16;12.20;99.90
60353;DHT22;46196;52.970;6.954;2023-07-20T05:07:41;12.10;99.90
60353;DHT22;46196;52.970;6.954;2023-07-20T05:10:07;12.30;99.90
60353;DHT22;46196;52.970;6.954;2023-07-20T05:14:59;12.30;99.90
60353;DHT22;46196;52.970;6.954;2023-07-20T05:19:51;12.30;99.90
60353;DHT22;46196;52.970;6.954;2023-07-20T05:22:17;13.00;99.90
60353;DHT22;46196;52.970;6.954;2023-07-20T05:24:42;13.80;99.90
60353;DHT22;46196;52.970;6.954;2023-07-20T05:29:34;12.90;99.90
60353;DHT22;46196;52.970;6.954;2023-07-20T05:32:00;12.50;99.90
60353;DHT22;46196;52.970;6.954;2023-07-20T05:34:25;14.40;99.90
60353;DHT22;46196;52.970;6.954;2023-07-20T05:36:51;13.30;99.90
60353;DHT22;46196;52.970;6.954;2023-07-20T05:39:17;12.80;99.90
60353;DHT22;46196;52.970;6.954;2023-07-20T05:41:43;11.70;99.90
60353;DHT22;46196;52.970;6.954;2023-07-20T05:44:09;13.60;99.90
60353;DHT22;46196;52.970;6.954;2023-07-20T05:46:35;12.80;99.90
60353;DHT22;46196;52.970;6.954;2023-07-20T05:49:00;13.50;99.90
60353;DHT22;46196;52.970;6.954;2023-07-20T05:51:27;13.30;99.90
60353;DHT22;46196;52.970;6.954;2023-07-20T05:53:52;13.90;99.90
60353;DHT22;46196;52.970;6.954;2023-07-20T05:56:18;13.70;99.90
60353;DHT22;46196;52.970;6.954;2023-07-20T05:58:44;14.10;99.90
60353;DHT22;46196;52.970;6.954;2023-07-20T06:01:10;13.70;99.90
60353;DHT22;46196;52.970;6.954;2023-07-20T06:03:35;14.00;99.90
60353;DHT22;46196;52.970;6.954;2023-07-20T06:06:03;12.70;99.90
60353;DHT22;46196;52.970;6.954;2023-07-20T06:08:30;13.90;99.90
60353;DHT22;46196;52.970;6.954;2023-07-20T06:10:56;13.60;99.90
60353;DHT22;46196;52.970;6.954;2023-07-20T06:15:48;13.90;99.90
60353;DHT22;46196;52.970;6.954;2023-07-20T06:18:14;13.10;99.90
60353;DHT22;46196;52.970;6.954;2023-07-20T06:20:40;14.70;99.90
60353;DHT22;46196;52.970;6.954;2023-07-20T06:23:06;13.90;99.90
60353;DHT22;46196;52.970;6.954;2023-07-20T06:25:31;14.40;99.90
60353;DHT22;46196;52.970;6.954;2023-07-20T06:30:24;14.40;99.90
60353;DHT22;46196;52.970;6.954;2023-07-20T06:32:50;14.60;99.90
60353;DHT22;46196;52.970;6.954;2023-07-20T06:35:16;13.90;99.90
60353;DHT22;46196;52.970;6.954;2023-07-20T06:37:42;15.90;99.90
60353;DHT22;46196;52.970;6.954;2023-07-20T06:40:08;15.70;99.90
60353;DHT22;46196;52.970;6.954;2023-07-20T06:42:36;15.50;99.90
60353;DHT22;46196;52.970;6.954;2023-07-20T06:45:02;15.50;99.90
60353;DHT22;46196;52.970;6.954;2023-07-20T06:47:28;15.40;99.90
60353;DHT22;46196;52.970;6.954;2023-07-20T06:49:54;15.60;99.90
60353;DHT22;46196;52.970;6.954;2023-07-20T06:52:19;17.10;99.90
60353;DHT22;46196;52.970;6.954;2023-07-20T06:54:45;16.70;99.90
60353;DHT22;46196;52.970;6.954;2023-07-20T06:57:10;16.00;99.90
60353;DHT22;46196;52.970;6.954;2023-07-20T06:59:36;15.60;99.90
60353;DHT22;46196;52.970;6.954;2023-07-20T07:02:02;16.30;99.90
60353;DHT22;46196;52.970;6.954;2023-07-20T07:04:27;15.90;99.90
60353;DHT22;46196;52.970;6.954;2023-07-20T07:06:53;17.40;99.90
60353;DHT22;46196;52.970;6.954;2023-07-20T07:09:19;16.20;99.90
60353;DHT22;46196;52.970;6.954;2023-07-20T07:11:46;16.00;99.90
60353;DHT22;46196;52.970;6.954;2023-07-20T07:14:12;15.90;99.90
60353;DHT22;46196;52.970;6.954;2023-07-20T07:16:37;16.70;99.90
60353;DHT22;46196;52.970;6.954;2023-07-20T07:19:03;16.00;99.90
60353;DHT22;46196;52.970;6.954;2023-07-20T07:21:31;16.10;99.90
60353;DHT22;46196;52.970;6.954;2023-07-20T07:23:57;16.30;99.90
60353;DHT22;46196;52.970;6.954;2023-07-20T07:26:23;15.80;99.90
60353;DHT22;46196;52.970;6.954;2023-07-20T07:28:49;16.60;99.90
60353;DHT22;46196;52.970;6.954;2023-07-20T07:31:15;16.60;99.90
60353;DHT22;46196;52.970;6.954;2023-07-20T07:33:41;18.30;99.90
60353;DHT22;46196;52.970;6.954;2023-07-20T07:36:07;16.90;99.90
60353;DHT22;46196;52.970;6.954;2023-07-20T07:38:32;17.30;99.90
60353;DHT22;46196;52.970;6.954;2023-07-20T07:40:59;18.10;99.90
60353;DHT22;46196;52.970;6.954;2023-07-20T07:43:25;18.10;99.90
60353;DHT22;46196;52.970;6.954;2023-07-20T07:45:54;18.60;99.90
60353;DHT22;46196;52.970;6.954;2023-07-20T07:48:19;19.70;99.90
60353;DHT22;46196;52.970;6.954;2023-07-20T07:50:46;20.70;99.90
60353;DHT22;46196;52.970;6.954;2023-07-20T07:53:12;20.60;99.90
60353;DHT22;46196;52.970;6.954;2023-07-20T07:55:38;20.60;99.90
60353;DHT22;46196;52.970;6.954;2023-07-20T07:58:04;21.10;99.90
60353;DHT22;46196;52.970;6.954;2023-07-20T08:00:29;21.50;99.90
60353;DHT22;46196;52.970;6.954;2023-07-20T08:02:55;22.40;99.90
60353;DHT22;46196;52.970;6.954;2023-07-20T08:05:21;23.00;99.90
60353;DHT22;46196;52.970;6.954;2023-07-20T08:07:46;22.30;99.90
60353;DHT22;46196;52.970;6.954;2023-07-20T08:10:12;22.60;99.90
60353;DHT22;46196;52.970;6.954;2023-07-20T08:12:38;22.90;99.90
60353;DHT22;46196;52.970;6.954;2023-07-20T08:15:04;22.90;99.90
60353;DHT22;46196;52.970;6.954;2023-07-20T08:17:30;22.20;99.90
60353;DHT22;46196;52.970;6.954;2023-07-20T08:19:55;22.00;99.90
60353;DHT22;46196;52.970;6.954;2023-07-20T08:22:21;22.20;99.90
60353;DHT22;46196;52.970;6.954;2023-07-20T08:24:47;22.60;99.90
60353;DHT22;46196;52.970;6.954;2023-07-20T08:27:12;23.00;99.90
60353;DHT22;46196;52.970;6.954;2023-07-20T08:29:38;23.00;99.90
60353;DHT22;46196;52.970;6.954;2023-07-20T08:32:04;23.20;99.40
60353;DHT22;46196;52.970;6.954;2023-07-20T08:34:31;23.20;99.80
60353;DHT22;46196;52.970;6.954;2023-07-20T08:36:57;23.40;98.10
60353;DHT22;46196;52.970;6.954;2023-07-20T08:39:23;23.40;98.30
60353;DHT22;46196;52.970;6.954;2023-07-20T08:41:49;23.50;97.70
60353;DHT22;46196;52.970;6.954;2023-07-20T08:44:15;23.80;94.40
60353;DHT22;46196;52.970;6.954;2023-07-20T08:46:41;23.70;96.50
60353;DHT22;46196;52.970;6.954;2023-07-20T08:49:08;23.50;97.20
60353;DHT22;46196;52.970;6.954;2023-07-20T08:51:35;23.50;95.30
60353;DHT22;46196;52.970;6.954;2023-07-20T08:54:01;22.50;96.10
60353;DHT22;46196;52.970;6.954;2023-07-20T08:56:27;22.10;96.30
60353;DHT22;46196;52.970;6.954;2023-07-20T08:58:56;22.40;96.80
60353;DHT22;46196;52.970;6.954;2023-07-20T09:01:22;22.70;97.30
60353;DHT22;46196;52.970;6.954;2023-07-20T09:03:49;22.80;96.90
60353;DHT22;46196;52.970;6.954;2023-07-20T09:06:15;23.00;93.00
60353;DHT22;46196;52.970;6.954;2023-07-20T09:08:42;23.10;91.60
60353;DHT22;46196;52.970;6.954;2023-07-20T09:11:10;23.30;94.00
60353;DHT22;46196;52.970;6.954;2023-07-20T09:13:37;23.40;94.60
60353;DHT22;46196;52.970;6.954;2023-07-20T09:16:03;23.70;95.20
60353;DHT22;46196;52.970;6.954;2023-07-20T09:18:31;24.10;89.50
60353;DHT22;46196;52.970;6.954;2023-07-20T09:21:04;23.80;90.50
60353;DHT22;46196;52.970;6.954;2023-07-20T09:23:34;23.40;90.60
60353;DHT22;46196;52.970;6.954;2023-07-20T09:26:00;23.10;91.80
60353;DHT22;46196;52.970;6.954;2023-07-20T09:28:26;23.30;91.90
60353;DHT22;46196;52.970;6.954;2023-07-20T09:30:54;23.10;91.10
60353;DHT22;46196;52.970;6.954;2023-07-20T09:33:24;22.80;92.20
60353;DHT22;46196;52.970;6.954;2023-07-20T09:35:50;22.70;91.40
60353;DHT22;46196;52.970;6.954;2023-07-20T09:38:16;22.60;94.80
60353;DHT22;46196;52.970;6.954;2023-07-20T09:40:42;22.50;95.00
60353;DHT22;46196;52.970;6.954;2023-07-20T09:43:08;23.10;96.00
60353;DHT22;46196;52.970;6.954;2023-07-20T09:45:42;22.70;96.70
60353;DHT22;46196;52.970;6.954;2023-07-20T09:48:09;22.70;94.00
60353;DHT22;46196;52.970;6.954;2023-07-20T09:50:42;22.50;92.80
60353;DHT22;46196;52.970;6.954;2023-07-20T09:53:11;22.20;92.50
60353;DHT22;46196;52.970;6.954;2023-07-20T09:55:40;21.80;93.70
60353;DHT22;46196;52.970;6.954;2023-07-20T09:58:08;21.50;94.90
60353;DHT22;46196;52.970;6.954;2023-07-20T10:00:36;21.30;96.80
60353;DHT22;46196;52.970;6.954;2023-07-20T10:03:04;21.40;97.90
60353;DHT22;46196;52.970;6.954;2023-07-20T10:05:34;22.10;97.50
60353;DHT22;46196;52.970;6.954;2023-07-20T10:08:02;22.00;95.20
60353;DHT22;46196;52.970;6.954;2023-07-20T10:10:32;22.40;95.60
60353;DHT22;46196;52.970;6.954;2023-07-20T10:13:01;22.50;96.00
60353;DHT22;46196;52.970;6.954;2023-07-20T10:15:34;22.70;96.70
60353;DHT22;46196;52.970;6.954;2023-07-20T10:20:51;23.00;94.50
60353;DHT22;46196;52.970;6.954;2023-07-20T10:23:19;23.00;94.10
60353;DHT22;46196;52.970;6.954;2023-07-20T10:25:46;23.20;91.90
60353;DHT22;46196;52.970;6.954;2023-07-20T10:28:13;23.10;93.80
60353;DHT22;46196;52.970;6.954;2023-07-20T10:30:40;23.20;93.20
60353;DHT22;46196;52.970;6.954;2023-07-20T10:33:07;23.20;94.70
60353;DHT22;46196;52.970;6.954;2023-07-20T10:35:56;23.30;92.90
60353;DHT22;46196;52.970;6.954;2023-07-20T10:41:28;23.20;92.50
60353;DHT22;46196;52.970;6.954;2023-07-20T10:44:09;23.10;92.20
60353;DHT22;46196;52.970;6.954;2023-07-20T10:49:06;22.70;95.20
60353;DHT22;46196;52.970;6.954;2023-07-20T10:51:45;22.40;96.00
60353;DHT22;46196;52.970;6.954;2023-07-20T10:56:44;22.20;96.10
60353;DHT22;46196;52.970;6.954;2023-07-20T11:01:58;22.00;94.40
60353;DHT22;46196;52.970;6.954;2023-07-20T11:04:43;21.80;95.50
60353;DHT22;46196;52.970;6.954;2023-07-20T11:07:09;22.10;94.80
60353;DHT22;46196;52.970;6.954;2023-07-20T11:09:38;22.10;95.40
60353;DHT22;46196;52.970;6.954;2023-07-20T11:12:15;22.30;94.40
60353;DHT22;46196;52.970;6.954;2023-07-20T11:14:42;22.40;94.70
60353;DHT22;46196;52.970;6.954;2023-07-20T11:17:15;21.70;92.70
60353;DHT22;46196;52.970;6.954;2023-07-20T11:19:41;22.50;93.70
60353;DHT22;46196;52.970;6.954;2023-07-20T11:22:10;21.70;93.30
60353;DHT22;46196;52.970;6.954;2023-07-20T11:24:39;22.50;94.80
60353;DHT22;46196;52.970;6.954;2023-07-20T11:27:06;22.10;94.80
60353;DHT22;46196;52.970;6.954;2023-07-20T11:29:31;22.70;92.70
60353;DHT22;46196;52.970;6.954;2023-07-20T11:31:57;22.00;92.80
60353;DHT22;46196;52.970;6.954;2023-07-20T11:34:24;21.90;92.00
60353;DHT22;46196;52.970;6.954;2023-07-20T11:36:51;22.00;92.00
60353;DHT22;46196;52.970;6.954;2023-07-20T11:39:19;22.10;92.20
60353;DHT22;46196;52.970;6.954;2023-07-20T11:41:49;22.50;92.90
60353;DHT22;46196;52.970;6.954;2023-07-20T11:44:16;22.50;92.50
60353;DHT22;46196;52.970;6.954;2023-07-20T11:46:43;22.80;94.60
60353;DHT22;46196;52.970;6.954;2023-07-20T11:49:12;22.90;90.00
60353;DHT22;46196;52.970;6.954;2023-07-20T11:51:40;23.50;90.80
60353;DHT22;46196;52.970;6.954;2023-07-20T11:54:08;23.60;91.80
60353;DHT22;46196;52.970;6.954;2023-07-20T11:56:34;23.60;88.20
60353;DHT22;46196;52.970;6.954;2023-07-20T11:59:00;23.40;88.20
60353;DHT22;46196;52.970;6.954;2023-07-20T12:01:29;23.20;91.10
60353;DHT22;46196;52.970;6.954;2023-07-20T12:03:59;21.80;89.60
60353;DHT22;46196;52.970;6.954;2023-07-20T12:06:26;22.90;91.20
60353;DHT22;46196;52.970;6.954;2023-07-20T12:08:59;22.70;91.50
60353;DHT22;46196;52.970;6.954;2023-07-20T12:11:38;22.50;91.50
60353;DHT22;46196;52.970;6.954;2023-07-20T12:14:07;22.30;91.60
60353;DHT22;46196;52.970;6.954;2023-07-20T12:16:33;21.90;92.20
60353;DHT22;46196;52.970;6.954;2023-07-20T12:19:03;21.80;92.50
60353;DHT22;46196;52.970;6.954;2023-07-20T12:21:30;21.70;93.20
60353;DHT22;46196;52.970;6.954;2023-07-20T12:23:57;21.50;94.10
60353;DHT22;46196;52.970;6.954;2023-07-20T12:26:24;21.30;94.90
60353;DHT22;46196;52.970;6.954;2023-07-20T12:28:51;21.10;94.70
60353;DHT22;46196;52.970;6.954;2023-07-20T12:31:17;20.90;96.20
60353;DHT22;46196;52.970;6.954;2023-07-20T12:33:43;20.80;95.70
60353;DHT22;46196;52.970;6.954;2023-07-20T12:36:10;20.70;96.60
60353;DHT22;46196;52.970;6.954;2023-07-20T12:38:36;20.70;96.80
60353;DHT22;46196;52.970;6.954;2023-07-20T12:41:03;20.60;96.70
60353;DHT22;46196;52.970;6.954;2023-07-20T12:43:29;20.70;97.20
60353;DHT22;46196;52.970;6.954;2023-07-20T12:45:56;20.60;97.20
60353;DHT22;46196;52.970;6.954;2023-07-20T12:48:22;20.60;97.40
60353;DHT22;46196;52.970;6.954;2023-07-20T12:50:47;20.50;96.30
60353;DHT22;46196;52.970;6.954;2023-07-20T12:53:14;20.50;96.60
60353;DHT22;46196;52.970;6.954;2023-07-20T12:55:40;19.70;94.60
60353;DHT22;46196;52.970;6.954;2023-07-20T12:58:07;21.00;94.80
60353;DHT22;46196;52.970;6.954;2023-07-20T13:00:33;20.80;94.80
60353;DHT22;46196;52.970;6.954;2023-07-20T13:02:59;21.00;95.40
60353;DHT22;46196;52.970;6.954;2023-07-20T13:05:25;21.40;93.90
60353;DHT22;46196;52.970;6.954;2023-07-20T13:07:51;21.40;94.40
60353;DHT22;46196;52.970;6.954;2023-07-20T13:10:17;20.90;93.10
60353;DHT22;46196;52.970;6.954;2023-07-20T13:12:44;21.80;93.10
60353;DHT22;46196;52.970;6.954;2023-07-20T13:15:10;21.80;91.00
60353;DHT22;46196;52.970;6.954;2023-07-20T13:17:37;21.80;92.30
60353;DHT22;46196;52.970;6.954;2023-07-20T13:20:05;21.80;91.10
60353;DHT22;46196;52.970;6.954;2023-07-20T13:22:32;21.70;92.40
60353;DHT22;46196;52.970;6.954;2023-07-20T13:24:57;21.60;93.20
60353;DHT22;46196;52.970;6.954;2023-07-20T13:27:23;21.70;94.20
60353;DHT22;46196;52.970;6.954;2023-07-20T13:29:51;21.70;94.40
60353;DHT22;46196;52.970;6.954;2023-07-20T13:32:17;21.60;94.90
60353;DHT22;46196;52.970;6.954;2023-07-20T13:34:46;21.70;95.00
60353;DHT22;46196;52.970;6.954;2023-07-20T13:37:12;21.50;96.50
60353;DHT22;46196;52.970;6.954;2023-07-20T13:39:38;21.70;96.10
60353;DHT22;46196;52.970;6.954;2023-07-20T13:42:05;21.60;96.30
60353;DHT22;46196;52.970;6.954;2023-07-20T13:44:31;21.60;96.20
60353;DHT22;46196;52.970;6.954;2023-07-20T13:46:57;21.70;95.60
60353;DHT22;46196;52.970;6.954;2023-07-20T13:49:23;21.80;94.90
60353;DHT22;46196;52.970;6.954;2023-07-20T13:51:49;21.90;95.80
60353;DHT22;46196;52.970;6.954;2023-07-20T13:54:14;21.90;96.20
60353;DHT22;46196;52.970;6.954;2023-07-20T13:56:40;21.90;96.90
60353;DHT22;46196;52.970;6.954;2023-07-20T13:59:06;21.80;96.50
60353;DHT22;46196;52.970;6.954;2023-07-20T14:01:31;21.70;96.70
60353;DHT22;46196;52.970;6.954;2023-07-20T14:04:00;22.20;96.80
60353;DHT22;46196;52.970;6.954;2023-07-20T14:06:29;21.70;97.00
60353;DHT22;46196;52.970;6.954;2023-07-20T14:08:55;21.70;96.60
60353;DHT22;46196;52.970;6.954;2023-07-20T14:11:20;21.60;96.20
60353;DHT22;46196;52.970;6.954;2023-07-20T14:13:46;20.80;95.60
60353;DHT22;46196;52.970;6.954;2023-07-20T14:16:12;21.50;96.00
60353;DHT22;46196;52.970;6.954;2023-07-20T14:18:38;21.40;96.10
60353;DHT22;46196;52.970;6.954;2023-07-20T14:21:03;21.30;96.90
60353;DHT22;46196;52.970;6.954;2023-07-20T14:23:30;21.20;96.90
60353;DHT22;46196;52.970;6.954;2023-07-20T14:25:56;21.10;97.50
60353;DHT22;46196;52.970;6.954;2023-07-20T14:28:22;21.10;97.90
60353;DHT22;46196;52.970;6.954;2023-07-20T14:30:47;21.20;97.10
60353;DHT22;46196;52.970;6.954;2023-07-20T14:33:13;21.10;97.20
60353;DHT22;46196;52.970;6.954;2023-07-20T14:35:39;21.00;97.00
60353;DHT22;46196;52.970;6.954;2023-07-20T14:38:04;21.00;97.30
60353;DHT22;46196;52.970;6.954;2023-07-20T14:40:33;20.90;97.90
60353;DHT22;46196;52.970;6.954;2023-07-20T14:42:59;20.70;98.80
60353;DHT22;46196;52.970;6.954;2023-07-20T14:45:27;20.90;99.10
60353;DHT22;46196;52.970;6.954;2023-07-20T14:47:53;21.00;99.40
60353;DHT22;46196;52.970;6.954;2023-07-20T14:50:21;21.00;98.70
60353;DHT22;46196;52.970;6.954;2023-07-20T14:52:47;21.30;99.90
60353;DHT22;46196;52.970;6.954;2023-07-20T14:55:13;21.20;99.90
60353;DHT22;46196;52.970;6.954;2023-07-20T14:57:39;21.40;99.90
60353;DHT22;46196;52.970;6.954;2023-07-20T15:00:05;21.80;99.90
60353;DHT22;46196;52.970;6.954;2023-07-20T15:02:33;22.00;99.90
60353;DHT22;46196;52.970;6.954;2023-07-20T15:04:59;22.20;99.60
60353;DHT22;46196;52.970;6.954;2023-07-20T15:07:25;22.30;99.30
60353;DHT22;46196;52.970;6.954;2023-07-20T15:09:51;22.20;98.90
60353;DHT22;46196;52.970;6.954;2023-07-20T15:12:17;22.10;99.10
60353;DHT22;46196;52.970;6.954;2023-07-20T15:14:43;22.60;98.60
60353;DHT22;46196;52.970;6.954;2023-07-20T15:17:10;22.20;99.30
60353;DHT22;46196;52.970;6.954;2023-07-20T15:19:36;22.20;98.60
60353;DHT22;46196;52.970;6.954;2023-07-20T15:22:04;22.20;98.60
60353;DHT22;46196;52.970;6.954;2023-07-20T15:24:32;22.40;99.00
60353;DHT22;46196;52.970;6.954;2023-07-20T15:26:58;21.70;98.20
60353;DHT22;46196;52.970;6.954;2023-07-20T15:29:24;22.10;98.60
60353;DHT22;46196;52.970;6.954;2023-07-20T15:31:50;22.30;96.50
60353;DHT22;46196;52.970;6.954;2023-07-20T15:34:15;21.90;94.30
60353;DHT22;46196;52.970;6.954;2023-07-20T15:36:41;22.60;95.20
60353;DHT22;46196;52.970;6.954;2023-07-20T15:39:08;22.70;94.20
60353;DHT22;46196;52.970;6.954;2023-07-20T15:41:33;22.90;94.10
60353;DHT22;46196;52.970;6.954;2023-07-20T15:43:59;23.00;93.10
60353;DHT22;46196;52.970;6.954;2023-07-20T15:46:44;22.90;92.70
60353;DHT22;46196;52.970;6.954;2023-07-20T15:49:10;22.80;94.30
60353;DHT22;46196;52.970;6.954;2023-07-20T15:51:36;22.80;94.40
60353;DHT22;46196;52.970;6.954;2023-07-20T15:54:03;22.90;94.70
60353;DHT22;46196;52.970;6.954;2023-07-20T15:56:31;22.70;92.90
60353;DHT22;46196;52.970;6.954;2023-07-20T15:58:57;22.70;93.40
60353;DHT22;46196;52.970;6.954;2023-07-20T16:01:22;22.40;93.30
60353;DHT22;46196;52.970;6.954;2023-07-20T16:03:48;22.50;93.80
60353;DHT22;46196;52.970;6.954;2023-07-20T16:06:14;21.70;94.50
60353;DHT22;46196;52.970;6.954;2023-07-20T16:08:39;21.80;94.50
60353;DHT22;46196;52.970;6.954;2023-07-20T16:11:05;21.50;94.80
60353;DHT22;46196;52.970;6.954;2023-07-20T16:13:31;21.60;95.00